Time;durP1;ratioP1;P1;durP2;ratioP2;P2;SDS_P1;SDS_P2;PMS_P1;PMS_P2;Temp;Humidity;BMP_temperature;BMP_pressure;BME280_temperature;BME280_humidity;BME280_pressure;Samples;Min_cycle;Max_cycle;Signal;HPM_P1;HPM_P2
2023/06/02 00:01:31;;;;;;;1.98;1.00;;;;;;;5.36;67.78;100537.53;10259399;29;20043;-87
2023/06/02 00:06:34;;;;;;;3.10;1.10;;;;;;;5.38;67.92;100532.69;10258104;28;20043;-87
2023/06/02 00:11:36;;;;;;;1.50;1.05;;;;;;;5.30;68.85;100538.53;10267419;29;20051;-87
2023/06/02 00:16:44;;;;;;;1.77;0.95;;;;;;;5.30;67.99;100537.72;10234830;28;20039;-85
2023/06/02 00:21:47;;;;;;;1.10;1.00;;;;;;;5.11;68.76;100540.69;10285364;29;20465;-85
2023/06/02 00:26:50;;;;;;;5.60;1.10;;;;;;;5.16;68.80;100539.94;10237352;29;20127;-87
2023/06/02 00:31:52;;;;;;;1.60;0.70;;;;;;;5.38;68.81;100540.00;10272659;29;20050;-87
2023/06/02 00:36:55;;;;;;;3.35;0.70;;;;;;;5.37;68.73;100532.91;10257742;28;20459;-87
2023/06/02 00:41:57;;;;;;;1.90;1.10;;;;;;;5.33;69.40;100542.66;10267609;29;20043;-86
2023/06/02 00:47:00;;;;;;;0.85;0.75;;;;;;;5.48;68.87;100523.81;10225405;28;20535;-86
2023/06/02 00:52:03;;;;;;;2.03;0.90;;;;;;;5.44;67.97;100522.69;10262664;28;20066;-86
2023/06/02 00:57:06;;;;;;;2.67;0.75;;;;;;;5.44;68.65;100525.41;10285239;28;20122;-86
2023/06/02 01:02:10;;;;;;;1.48;0.70;;;;;;;5.53;68.17;100521.16;10270089;29;20039;-88
2023/06/02 01:07:13;;;;;;;2.25;0.70;;;;;;;5.66;67.46;100528.16;10269741;29;20055;-86
2023/06/02 01:12:22;;;;;;;1.63;0.80;;;;;;;5.70;68.61;100529.28;10284982;29;20054;-87
2023/06/02 01:17:35;;;;;;;1.95;0.85;;;;;;;5.77;68.40;100531.84;10285779;29;20046;-85
2023/06/02 01:22:58;;;;;;;2.80;0.73;;;;;;;5.64;67.76;100530.31;10238357;29;20054;-86
2023/06/02 01:28:04;;;;;;;1.98;0.98;;;;;;;5.71;68.45;100536.38;10257147;28;20058;-86
2023/06/02 01:33:11;;;;;;;0.52;0.52;;;;;;;5.74;68.96;100536.72;10295539;28;20046;-87
2023/06/02 01:38:14;;;;;;;1.77;0.87;;;;;;;5.74;67.31;100539.44;10297466;28;20050;-85
2023/06/02 01:43:17;;;;;;;2.72;0.80;;;;;;;5.74;66.80;100534.00;10254744;29;20394;-86
2023/06/02 01:48:20;;;;;;;0.82;0.50;;;;;;;5.91;65.16;100527.72;10268916;29;20463;-86
2023/06/02 01:53:26;;;;;;;0.77;0.70;;;;;;;6.19;64.47;100524.78;10278671;29;20054;-86
2023/06/02 01:58:29;;;;;;;0.70;0.40;;;;;;;6.55;63.72;100514.25;10270696;29;20043;-88
2023/06/02 02:03:32;;;;;;;0.65;0.47;;;;;;;6.94;62.73;100515.72;10278984;28;20046;-86
2023/06/02 02:08:34;;;;;;;0.52;0.40;;;;;;;7.11;62.11;100517.47;10267885;29;20051;-87
2023/06/02 02:13:37;;;;;;;3.03;0.40;;;;;;;7.36;61.22;100519.56;10287156;29;20038;-88
2023/06/02 02:18:40;;;;;;;0.93;0.40;;;;;;;7.75;60.40;100526.34;10238514;29;20051;-87
2023/06/02 02:23:42;;;;;;;1.02;0.52;;;;;;;8.08;59.60;100522.41;10277129;29;20039;-92
2023/06/02 02:28:47;;;;;;;0.52;0.52;;;;;;;8.33;58.80;100520.84;10237735;29;20046;-85
2023/06/02 02:33:50;;;;;;;1.05;0.30;;;;;;;8.74;57.91;100528.09;10217283;29;20513;-86
2023/06/02 02:38:55;;;;;;;0.82;0.40;;;;;;;9.10;56.19;100522.63;10217882;29;20036;-87
2023/06/02 02:43:58;;;;;;;1.20;0.40;;;;;;;9.14;56.49;100528.38;10232258;29;20519;-86
2023/06/02 02:49:00;;;;;;;0.90;0.47;;;;;;;9.57;55.31;100525.06;10235571;29;20067;-86
2023/06/02 02:54:03;;;;;;;0.70;0.25;;;;;;;9.82;54.03;100515.09;10262894;29;20044;-86
2023/06/02 02:59:07;;;;;;;4.47;0.75;;;;;;;10.18;52.24;100521.28;10252002;29;20421;-87
2023/06/02 03:04:11;;;;;;;2.28;0.43;;;;;;;10.31;51.64;100520.69;10268249;29;20043;-87
2023/06/02 03:09:17;;;;;;;0.52;0.32;;;;;;;10.62;51.54;100517.78;10225581;29;20031;-86
2023/06/02 03:14:20;;;;;;;0.43;0.28;;;;;;;10.73;50.44;100517.41;10271507;28;20427;-86
2023/06/02 03:19:24;;;;;;;0.82;0.30;;;;;;;10.89;49.92;100512.63;10234957;29;20046;-86
2023/06/02 03:24:27;;;;;;;0.25;0.25;;;;;;;11.07;49.87;100522.09;10232867;29;20066;-85
2023/06/02 03:29:35;;;;;;;0.50;0.40;;;;;;;11.43;50.44;100522.59;10232453;29;20043;-87
2023/06/02 03:34:39;;;;;;;0.32;0.30;;;;;;;11.84;50.67;100519.47;10251288;29;20058;-87
2023/06/02 03:39:43;;;;;;;1.55;0.25;;;;;;;12.07;50.39;100524.94;10231970;29;20043;-85
2023/06/02 03:44:45;;;;;;;0.80;0.57;;;;;;;12.40;49.55;100510.50;10234390;29;20528;-86
2023/06/02 03:49:48;;;;;;;0.30;0.30;;;;;;;12.34;50.41;100521.59;10226408;29;20417;-86
2023/06/02 03:54:50;;;;;;;0.73;0.30;;;;;;;12.79;49.83;100521.22;10257083;28;20419;-86
2023/06/02 03:59:53;;;;;;;0.25;0.20;;;;;;;13.17;49.37;100516.47;10308576;28;20058;-84
2023/06/02 04:04:56;;;;;;;0.90;0.35;;;;;;;13.48;48.96;100514.03;10259937;28;20198;-86
2023/06/02 04:10:01;;;;;;;2.30;0.40;;;;;;;13.54;48.58;100507.31;10283667;28;20043;-84
2023/06/02 04:15:04;;;;;;;0.30;0.30;;;;;;;13.96;48.17;100516.44;10239283;28;20055;-84
2023/06/02 04:20:07;;;;;;;1.17;0.30;;;;;;;13.95;47.94;100512.03;10222381;29;20416;-85
2023/06/02 04:25:11;;;;;;;0.28;0.28;;;;;;;13.51;47.66;100524.44;10216472;29;20578;-87
2023/06/02 04:30:14;;;;;;;0.38;0.20;;;;;;;13.55;47.02;100511.72;10226908;29;20401;-86
2023/06/02 04:35:16;;;;;;;1.48;0.30;;;;;;;12.93;47.78;100520.16;10196606;29;20066;-87
2023/06/02 04:40:19;;;;;;;0.73;0.20;;;;;;;12.31;49.80;100516.66;10241497;29;20035;-87
2023/06/02 04:45:21;;;;;;;1.95;0.20;;;;;;;13.19;47.78;100519.75;10274588;29;20035;-85
2023/06/02 04:50:25;;;;;;;1.70;0.50;;;;;;;14.18;45.80;100514.56;10248275;29;20084;-83
2023/06/02 04:55:27;;;;;;;0.52;0.40;;;;;;;14.45;45.75;100512.94;10228791;29;20047;-85
2023/06/02 05:00:30;;;;;;;0.20;0.20;;;;;;;14.40;44.52;100519.34;10224730;29;20139;-84
2023/06/02 05:05:34;;;;;;;0.32;0.20;;;;;;;14.33;43.80;100516.19;10244192;28;20047;-84
2023/06/02 05:10:36;;;;;;;0.63;0.30;;;;;;;14.31;44.70;100517.63;10232187;29;20039;-84
2023/06/02 05:15:39;;;;;;;1.60;0.20;;;;;;;14.78;43.55;100521.84;10234254;29;20051;-85
2023/06/02 05:20:42;;;;;;;2.28;0.30;;;;;;;13.33;44.93;100525.31;10247883;29;20054;-85
2023/06/02 05:25:44;;;;;;;2.50;0.30;;;;;;;13.15;45.68;100526.97;10248369;29;20497;-84
2023/06/02 05:30:46;;;;;;;0.85;0.10;;;;;;;13.92;45.17;100527.25;10257703;29;20054;-85
2023/06/02 05:35:49;;;;;;;0.20;0.20;;;;;;;13.05;45.77;100533.47;10266852;29;20046;-84
2023/06/02 05:40:52;;;;;;;0.95;0.15;;;;;;;12.22;47.24;100534.94;10245808;29;20540;-85
2023/06/02 05:45:54;;;;;;;1.27;0.20;;;;;;;13.34;46.21;100522.25;10258762;29;20046;-84
2023/06/02 05:50:57;;;;;;;0.60;0.40;;;;;;;14.18;43.68;100525.59;10247771;29;20122;-84
2023/06/02 05:55:59;;;;;;;0.15;0.15;;;;;;;13.81;43.78;100526.63;10238198;29;20046;-84
2023/06/02 06:01:02;;;;;;;1.17;0.10;;;;;;;12.59;46.39;100527.84;10263806;29;20408;-83
2023/06/02 06:06:05;;;;;;;1.38;0.70;;;;;;;11.90;46.69;100535.59;10210521;29;20059;-85
2023/06/02 06:11:08;;;;;;;1.63;0.98;;;;;;;11.17;46.96;100535.75;10232117;29;20504;-85
2023/06/02 06:16:10;;;;;;;0.65;0.17;;;;;;;10.71;48.72;100543.50;10234383;28;20046;-86
2023/06/02 06:21:15;;;;;;;0.20;0.10;;;;;;;11.86;46.20;100525.50;10266465;29;20050;-85
2023/06/02 06:26:17;;;;;;;0.30;0.20;;;;;;;11.96;45.76;100537.19;10268657;29;20039;-85
2023/06/02 06:31:19;;;;;;;1.85;0.20;;;;;;;11.25;47.21;100542.53;10269012;29;20413;-84
2023/06/02 06:36:22;;;;;;;0.50;0.10;;;;;;;10.75;47.73;100561.84;10263260;29;20385;-85
2023/06/02 06:41:25;;;;;;;0.13;0.10;;;;;;;11.98;46.67;100542.41;10269193;29;20070;-85
2023/06/02 06:46:28;;;;;;;0.55;0.22;;;;;;;13.19;44.59;100544.56;10281197;28;20039;-85
2023/06/02 06:51:30;;;;;;;0.90;0.20;;;;;;;13.64;42.65;100531.09;10268877;29;20508;-85
2023/06/02 06:56:33;;;;;;;0.10;0.10;;;;;;;12.96;43.64;100538.03;10283370;29;20054;-86
2023/06/02 07:01:37;;;;;;;0.57;0.30;;;;;;;12.23;44.75;100546.78;10238530;29;20042;-84
2023/06/02 07:06:39;;;;;;;0.30;0.30;;;;;;;12.81;44.32;100539.06;10262479;29;20051;-84
2023/06/02 07:11:41;;;;;;;0.40;0.20;;;;;;;14.35;41.10;100536.00;10238362;29;20055;-85
2023/06/02 07:16:45;;;;;;;1.25;0.20;;;;;;;14.22;39.94;100530.50;10214931;29;20058;-86
2023/06/02 07:21:48;;;;;;;1.23;0.30;;;;;;;15.04;39.05;100531.16;10232238;29;20051;-88
2023/06/02 07:26:50;;;;;;;0.17;0.13;;;;;;;15.25;38.43;100520.38;10234944;29;20051;-85
2023/06/02 07:31:52;;;;;;;0.25;0.20;;;;;;;13.63;40.68;100546.00;10237215;29;20144;-86
2023/06/02 07:37:00;;;;;;;0.10;0.10;;;;;;;12.65;43.59;100543.16;10244758;29;20046;-89
2023/06/02 07:42:02;;;;;;;0.22;0.10;;;;;;;11.96;46.51;100547.34;10236766;29;20051;-86
2023/06/02 07:47:07;;;;;;;0.13;0.13;;;;;;;13.27;45.14;100550.22;10284789;29;20054;-85
2023/06/02 07:52:09;;;;;;;0.22;0.20;;;;;;;15.09;41.72;100538.50;10245908;29;20445;-84
2023/06/02 07:57:11;;;;;;;0.73;0.30;;;;;;;15.27;41.11;100545.81;10249396;29;20038;-84
2023/06/02 08:02:13;;;;;;;0.88;0.30;;;;;;;14.07;44.48;100546.28;10257340;29;20047;-84
2023/06/02 08:07:16;;;;;;;2.67;0.30;;;;;;;12.84;47.26;100552.25;10234024;29;20070;-82
2023/06/02 08:12:20;;;;;;;1.70;0.40;;;;;;;12.23;47.57;100558.59;10252287;29;20039;-87
2023/06/02 08:17:25;;;;;;;3.83;0.65;;;;;;;12.09;47.28;100563.16;10248827;29;20051;-83
2023/06/02 08:22:28;;;;;;;1.15;0.40;;;;;;;12.36;46.32;100562.56;10257165;29;20058;-85
2023/06/02 08:27:33;;;;;;;1.35;0.30;;;;;;;14.02;44.67;100560.16;10245534;29;20043;-84
2023/06/02 08:32:36;;;;;;;0.47;0.20;;;;;;;12.95;46.06;100564.75;10267564;29;20035;-86
2023/06/02 08:37:38;;;;;;;2.13;0.32;;;;;;;12.56;47.72;100567.78;10269503;28;20051;-85
2023/06/02 08:42:40;;;;;;;0.32;0.32;;;;;;;13.60;44.91;100576.97;10266418;29;20043;-85
2023/06/02 08:47:53;;;;;;;3.30;0.30;;;;;;;13.48;44.21;100580.19;10247937;29;20046;-88
2023/06/02 08:52:56;;;;;;;0.38;0.25;;;;;;;12.93;46.19;100589.00;10255814;29;20062;-85
2023/06/02 08:57:58;;;;;;;0.68;0.20;;;;;;;11.41;50.95;100613.56;10244791;29;20042;-85
2023/06/02 09:03:00;;;;;;;0.20;0.20;;;;;;;11.40;50.89;100617.41;10257477;29;20051;-84
2023/06/02 09:08:08;;;;;;;1.35;0.20;;;;;;;10.81;52.83;100618.38;10195434;29;20444;-87
2023/06/02 09:13:29;;;;;;;0.40;0.30;;;;;;;10.60;53.92;100633.31;10236533;29;20035;-88
2023/06/02 09:18:31;;;;;;;0.30;0.22;;;;;;;10.27;54.36;100623.84;10224334;29;20047;-83
2023/06/02 09:23:44;;;;;;;0.20;0.20;;;;;;;9.99;55.06;100633.47;10194654;29;20044;-87
2023/06/02 09:28:59;;;;;;;1.02;0.28;;;;;;;9.50;56.79;100641.47;10239388;29;20416;-90
2023/06/02 09:34:02;;;;;;;1.13;0.45;;;;;;;9.69;58.87;100631.59;10238423;29;20500;-88
2023/06/02 09:39:06;;;;;;;0.60;0.25;;;;;;;9.68;60.89;100640.91;10223516;29;20034;-92
2023/06/02 09:44:13;;;;;;;0.55;0.32;;;;;;;9.31;60.94;100646.66;10245645;29;20099;-92
2023/06/02 09:49:15;;;;;;;0.10;0.10;;;;;;;9.08;60.53;100664.44;10233862;28;20059;-84
2023/06/02 09:54:17;;;;;;;0.20;0.20;;;;;;;9.04;63.11;100668.81;10273153;29;20054;-85
2023/06/02 09:59:20;;;;;;;0.30;0.28;;;;;;;9.04;64.11;100668.81;10256039;29;20058;-83
2023/06/02 10:04:22;;;;;;;1.33;0.28;;;;;;;9.52;66.22;100662.00;10265149;29;20046;-86
2023/06/02 10:09:50;;;;;;;1.60;0.30;;;;;;;9.28;66.75;100669.13;10241144;29;20037;-83
2023/06/02 10:15:06;;;;;;;0.20;0.20;;;;;;;9.66;67.28;100659.53;10272996;29;20058;-86
2023/06/02 10:20:37;;;;;;;0.32;0.32;;;;;;;9.82;65.28;100669.41;10272988;29;20074;-84
2023/06/02 10:26:10;;;;;;;0.60;0.40;;;;;;;9.82;63.90;100669.41;10274077;29;20057;-87
2023/06/02 10:31:13;;;;;;;0.30;0.30;;;;;;;10.18;61.78;100658.38;10272007;29;20114;-85
2023/06/02 10:36:18;;;;;;;0.68;0.38;;;;;;;10.01;59.26;100677.06;10271577;29;20051;-85
2023/06/02 10:41:59;;;;;;;0.85;0.30;;;;;;;10.05;57.63;100676.22;10239124;28;20069;-83
2023/06/02 10:47:31;;;;;;;0.30;0.30;;;;;;;9.98;56.90;100676.50;10256632;29;20035;-84
2023/06/02 10:52:58;;;;;;;0.40;0.40;;;;;;;10.00;54.96;100678.97;10253959;29;20051;-84
2023/06/02 10:58:06;;;;;;;;;;;;;;;10.34;53.68;100690.19;10257097;28;20408;-83
2023/06/02 11:03:17;;;;;;;3.60;1.02;;;;;;;10.27;52.07;100686.91;10267167;28;20298;-84
2023/06/02 11:08:21;;;;;;;1.30;0.70;;;;;;;10.18;49.80;100683.06;10287104;29;20043;-85
2023/06/02 11:13:24;;;;;;;0.68;0.40;;;;;;;10.36;48.18;100682.50;10286270;29;20054;-87
2023/06/02 11:18:28;;;;;;;0.50;0.40;;;;;;;10.48;47.17;100677.53;10268755;29;20043;-82
2023/06/02 11:23:30;;;;;;;0.47;0.30;;;;;;;10.37;45.23;100681.38;10286560;29;20047;-83
2023/06/02 11:28:33;;;;;;;0.28;0.28;;;;;;;10.29;43.68;100676.50;10252312;29;20042;-81
2023/06/02 11:33:38;;;;;;;0.40;0.40;;;;;;;10.17;46.12;100676.75;10251436;29;20053;-85
2023/06/02 11:38:40;;;;;;;0.32;0.32;;;;;;;10.02;46.94;100682.25;10251929;29;20039;-85
2023/06/02 11:43:45;;;;;;;1.35;0.30;;;;;;;9.74;48.81;100693.81;10252688;29;20035;-81
2023/06/02 11:48:47;;;;;;;3.63;0.32;;;;;;;9.57;47.51;100697.63;10267547;29;20046;-85
2023/06/02 11:54:00;;;;;;;0.30;0.30;;;;;;;9.64;48.42;100687.22;10283575;29;20059;-82
2023/06/02 11:59:03;;;;;;;1.35;0.20;;;;;;;9.70;47.78;100693.50;10262968;29;20052;-86
2023/06/02 12:04:05;;;;;;;0.20;0.20;;;;;;;9.89;48.25;100686.41;10263235;28;20051;-85
2023/06/02 12:09:13;;;;;;;1.30;0.40;;;;;;;9.92;47.19;100696.81;10258525;29;20047;-84
2023/06/02 12:14:15;;;;;;;0.30;0.30;;;;;;;9.59;47.35;100703.66;10268421;28;20047;-81
2023/06/02 12:19:20;;;;;;;0.20;0.20;;;;;;;9.50;47.87;100704.47;10241783;29;20039;-81
2023/06/02 12:24:43;;;;;;;0.40;0.40;;;;;;;9.68;45.03;100714.88;10226562;29;20047;-82
2023/06/02 12:29:46;;;;;;;0.40;0.22;;;;;;;9.72;44.13;100706.94;10243074;29;20043;-81
2023/06/02 12:34:48;;;;;;;2.35;0.57;;;;;;;9.73;45.00;100712.16;10237205;29;20046;-83
2023/06/02 12:39:51;;;;;;;2.17;0.50;;;;;;;9.65;46.64;100710.78;10263857;29;20509;-83
2023/06/02 12:44:57;;;;;;;0.52;0.40;;;;;;;9.59;47.92;100716.53;10260119;29;20077;-84
2023/06/02 12:50:00;;;;;;;2.05;0.50;;;;;;;9.59;49.07;100708.31;10256682;28;20054;-84
2023/06/02 12:55:03;;;;;;;1.17;0.40;;;;;;;9.65;48.68;100704.47;10268307;29;20043;-86
2023/06/02 13:00:10;;;;;;;0.28;0.13;;;;;;;9.73;48.77;100706.69;10233232;29;20141;-86
2023/06/02 13:05:16;;;;;;;0.47;0.40;;;;;;;9.72;48.18;100704.19;10216147;29;20044;-85
2023/06/02 13:10:21;;;;;;;2.10;0.30;;;;;;;9.75;47.81;100712.72;10240294;29;20528;-86
2023/06/02 13:15:24;;;;;;;2.67;0.55;;;;;;;9.71;45.57;100717.06;10233780;29;20416;-83
2023/06/02 13:20:29;;;;;;;0.63;0.40;;;;;;;9.51;45.41;100725.28;10249134;28;20512;-84
2023/06/02 13:25:33;;;;;;;0.50;0.38;;;;;;;9.38;46.07;100731.31;10250586;28;20505;-85
2023/06/02 13:30:36;;;;;;;0.65;0.65;;;;;;;9.47;48.13;100727.75;10273392;29;20047;-83
2023/06/02 13:35:38;;;;;;;0.43;0.30;;;;;;;9.39;47.69;100724.72;10275783;29;20054;-86
2023/06/02 13:40:44;;;;;;;0.30;0.30;;;;;;;9.34;49.62;100725.53;10274528;29;20055;-84
2023/06/02 13:45:48;;;;;;;1.08;0.60;;;;;;;9.43;49.22;100718.44;10276199;29;20043;-85
2023/06/02 13:50:50;;;;;;;1.88;0.93;;;;;;;9.37;49.05;100722.25;10289223;29;20062;-83
2023/06/02 13:55:53;;;;;;;1.40;0.68;;;;;;;9.46;47.70;100736.25;10271917;29;20456;-83
2023/06/02 14:00:55;;;;;;;3.42;0.70;;;;;;;9.26;48.37;100743.31;10273127;29;20035;-88
2023/06/02 14:05:57;;;;;;;1.15;0.73;;;;;;;9.17;48.59;100746.84;10282915;29;20043;-87
2023/06/02 14:10:59;;;;;;;1.63;1.00;;;;;;;9.15;49.49;100746.28;10251025;29;20035;-84
2023/06/02 14:16:02;;;;;;;0.85;0.60;;;;;;;9.25;50.48;100754.53;10260759;28;20051;-84
2023/06/02 14:21:04;;;;;;;1.52;0.45;;;;;;;9.31;51.02;100757.00;10260461;28;20062;-85
2023/06/02 14:26:07;;;;;;;0.30;0.30;;;;;;;9.36;52.34;100757.03;10257217;28;20047;-84
2023/06/02 14:31:09;;;;;;;0.30;0.30;;;;;;;9.58;52.47;100759.56;10268323;29;20090;-86
2023/06/02 14:36:11;;;;;;;0.70;0.55;;;;;;;9.66;52.70;100764.47;10237604;28;20051;-90
2023/06/02 14:41:14;;;;;;;0.80;0.70;;;;;;;9.62;53.02;100762.56;10272486;29;20043;-87
2023/06/02 14:46:28;;;;;;;0.38;0.30;;;;;;;9.77;53.50;100759.84;10234721;29;20412;-86
2023/06/02 14:51:30;;;;;;;0.43;0.40;;;;;;;9.75;52.66;100756.56;10264604;29;20055;-84
2023/06/02 14:56:32;;;;;;;0.77;0.60;;;;;;;9.68;53.63;100764.22;10272072;29;20059;-84
2023/06/02 15:01:34;;;;;;;0.98;0.88;;;;;;;9.55;54.12;100757.34;10286404;29;20039;-85
2023/06/02 15:06:37;;;;;;;0.50;0.38;;;;;;;9.73;54.32;100758.75;10253593;29;20136;-83
2023/06/02 15:11:40;;;;;;;0.73;0.60;;;;;;;9.73;53.44;100769.72;10268041;29;20066;-83
2023/06/02 15:16:42;;;;;;;1.73;0.60;;;;;;;9.47;53.71;100759.78;10215751;29;20417;-83
2023/06/02 15:21:44;;;;;;;0.73;0.70;;;;;;;9.34;53.95;100764.69;10214426;29;20063;-84
2023/06/02 15:26:46;;;;;;;1.85;0.75;;;;;;;9.41;54.16;100764.44;10229207;29;20051;-84
2023/06/02 15:31:49;;;;;;;1.75;0.57;;;;;;;9.39;54.62;100754.84;10252822;29;20135;-82
2023/06/02 15:36:52;;;;;;;0.45;0.45;;;;;;;9.33;53.08;100759.47;10252870;29;20094;-85
2023/06/02 15:41:54;;;;;;;2.95;0.35;;;;;;;9.23;52.48;100768.50;10268262;29;20043;-83
2023/06/02 15:46:56;;;;;;;3.50;0.65;;;;;;;9.21;52.82;100759.75;10282774;29;20035;-83
2023/06/02 15:52:00;;;;;;;0.77;0.50;;;;;;;9.18;53.57;100765.72;10235640;29;20051;-83
2023/06/02 15:57:03;;;;;;;3.33;0.70;;;;;;;9.19;53.83;100764.63;10267328;29;20054;-84
2023/06/02 16:02:05;;;;;;;1.33;0.70;;;;;;;9.06;53.45;100765.16;10251850;29;20035;-82
2023/06/02 16:07:07;;;;;;;2.25;0.93;;;;;;;8.92;53.06;100769.47;10268057;29;20042;-82
2023/06/02 16:12:10;;;;;;;0.45;0.25;;;;;;;8.91;53.24;100767.84;10283040;29;20047;-83
2023/06/02 16:17:13;;;;;;;1.50;0.57;;;;;;;9.02;53.47;100772.25;10283177;29;20059;-81
2023/06/02 16:22:15;;;;;;;1.80;0.68;;;;;;;8.92;53.29;100767.56;10280587;29;20039;-85
2023/06/02 16:27:17;;;;;;;1.05;0.40;;;;;;;8.90;52.92;100769.75;10250202;29;20051;-84
2023/06/02 16:32:19;;;;;;;1.85;0.60;;;;;;;8.79;52.99;100770.78;10281430;29;20043;-84
2023/06/02 16:37:22;;;;;;;0.40;0.40;;;;;;;8.77;52.77;100784.72;10249864;29;20420;-84
2023/06/02 16:42:24;;;;;;;1.67;1.08;;;;;;;8.71;52.61;100774.03;10265804;29;20412;-83
2023/06/02 16:47:28;;;;;;;1.23;0.77;;;;;;;8.57;52.82;100770.94;10281986;29;20179;-83
2023/06/02 16:52:30;;;;;;;1.83;0.70;;;;;;;8.48;53.32;100775.25;10285432;29;20070;-84
2023/06/02 16:57:32;;;;;;;0.45;0.40;;;;;;;8.38;52.96;100770.53;10282008;29;20047;-84
2023/06/02 17:02:34;;;;;;;0.85;0.50;;;;;;;8.30;53.87;100773.72;10277822;28;20420;-82
2023/06/02 17:07:36;;;;;;;1.48;0.73;;;;;;;8.25;54.56;100778.34;10249158;29;20412;-82
2023/06/02 17:12:39;;;;;;;1.10;0.60;;;;;;;8.19;54.54;100782.97;10265166;29;20051;-83
2023/06/02 17:17:42;;;;;;;1.00;0.60;;;;;;;8.05;54.32;100781.75;10265536;29;20072;-82
2023/06/02 17:22:44;;;;;;;1.25;0.60;;;;;;;8.01;54.81;100776.00;10282733;29;20054;-83
2023/06/02 17:27:47;;;;;;;1.40;0.70;;;;;;;7.94;54.98;100778.09;10280820;29;20055;-84
2023/06/02 17:32:49;;;;;;;0.98;0.50;;;;;;;7.92;55.61;100774.81;10233514;29;20069;-82
2023/06/02 17:37:51;;;;;;;0.85;0.75;;;;;;;7.88;55.70;100775.59;10281124;29;20047;-84
2023/06/02 17:42:54;;;;;;;2.17;0.80;;;;;;;7.86;55.67;100784.06;10264661;29;20533;-83
2023/06/02 17:47:57;;;;;;;1.25;0.80;;;;;;;7.84;55.41;100789.78;10264725;29;20043;-83
2023/06/02 17:52:59;;;;;;;2.28;0.77;;;;;;;7.83;56.65;100803.69;10249156;29;20425;-82
2023/06/02 17:58:03;;;;;;;2.08;1.00;;;;;;;7.74;56.19;100805.22;10266584;29;20058;-85
2023/06/02 18:03:06;;;;;;;1.98;1.10;;;;;;;7.67;57.22;100810.09;10281893;29;20421;-84
2023/06/02 18:08:08;;;;;;;1.85;0.95;;;;;;;7.61;57.41;100813.84;10281539;29;20039;-82
2023/06/02 18:13:11;;;;;;;2.50;0.93;;;;;;;7.57;57.82;100811.63;10269030;28;20262;-84
2023/06/02 18:18:13;;;;;;;2.20;1.00;;;;;;;7.53;58.92;100815.94;10256223;29;20050;-84
2023/06/02 18:23:16;;;;;;;1.95;0.93;;;;;;;7.49;58.54;100823.00;10240280;29;20054;-84
2023/06/02 18:28:18;;;;;;;4.68;1.00;;;;;;;7.38;59.22;100815.78;10255189;29;20039;-83
2023/06/02 18:33:20;;;;;;;3.70;1.50;;;;;;;7.32;58.98;100827.72;10255044;29;20051;-82
2023/06/02 18:38:22;;;;;;;3.08;1.48;;;;;;;7.27;59.19;100822.19;10254923;29;20122;-83
2023/06/02 18:43:25;;;;;;;4.97;1.63;;;;;;;7.25;60.02;100821.63;10255212;29;20054;-83
2023/06/02 18:48:27;;;;;;;2.22;1.23;;;;;;;7.14;59.62;100819.88;10259207;29;20055;-84
2023/06/02 18:53:29;;;;;;;3.25;1.15;;;;;;;7.09;60.16;100827.97;10271148;29;20053;-84
2023/06/02 18:58:31;;;;;;;1.83;1.00;;;;;;;7.04;60.43;100819.72;10269953;29;20047;-83
2023/06/02 19:03:34;;;;;;;2.05;1.20;;;;;;;6.97;60.65;100827.28;10267262;29;20047;-84
2023/06/02 19:08:36;;;;;;;2.30;1.30;;;;;;;6.93;61.19;100826.94;10253578;29;20047;-83
2023/06/02 19:13:40;;;;;;;3.17;1.45;;;;;;;6.82;61.54;100830.63;10269985;29;20046;-81
2023/06/02 19:18:46;;;;;;;2.33;1.50;;;;;;;6.75;61.72;100827.22;10254622;29;20051;-83
2023/06/02 19:23:51;;;;;;;2.22;1.50;;;;;;;6.73;62.71;100824.75;10284925;28;20071;-85
2023/06/02 19:28:53;;;;;;;3.60;1.35;;;;;;;6.78;62.56;100824.03;10275274;28;20043;-84
2023/06/02 19:33:56;;;;;;;2.50;1.38;;;;;;;6.81;62.67;100831.69;10251128;29;20052;-85
2023/06/02 19:38:58;;;;;;;2.10;1.17;;;;;;;6.75;62.75;100838.97;10231561;28;20046;-83
2023/06/02 19:44:00;;;;;;;1.80;0.98;;;;;;;6.68;62.97;100841.06;10263451;28;20050;-85
2023/06/02 19:49:02;;;;;;;1.58;1.20;;;;;;;6.69;63.06;100841.88;10249863;28;20043;-87
2023/06/02 19:54:05;;;;;;;3.60;1.50;;;;;;;6.63;63.73;100841.81;10245053;28;20043;-86
2023/06/02 19:59:08;;;;;;;6.57;1.65;;;;;;;6.62;63.69;100845.63;10279648;28;20143;-85
2023/06/02 20:04:10;;;;;;;4.00;1.58;;;;;;;6.59;63.84;100834.38;10284051;28;20042;-84
2023/06/02 20:09:15;;;;;;;3.30;1.60;;;;;;;6.54;64.17;100840.56;10232284;28;20042;-86
2023/06/02 20:14:18;;;;;;;4.05;1.77;;;;;;;6.52;64.68;100841.91;10243502;29;20054;-86
2023/06/02 20:19:20;;;;;;;3.83;1.67;;;;;;;6.46;64.71;100846.47;10240755;28;20039;-83
2023/06/02 20:24:23;;;;;;;2.03;1.52;;;;;;;6.45;64.18;100849.44;10246738;28;20039;-84
2023/06/02 20:29:26;;;;;;;5.25;1.80;;;;;;;6.41;64.33;100842.81;10260385;28;20047;-86
2023/06/02 20:34:28;;;;;;;2.22;1.75;;;;;;;6.40;64.46;100839.25;10268395;28;20043;-86
2023/06/02 20:39:30;;;;;;;5.35;2.08;;;;;;;6.39;64.63;100839.50;10287221;28;20054;-85
2023/06/02 20:44:32;;;;;;;3.88;1.95;;;;;;;6.34;64.67;100840.25;10248534;28;20128;-86
2023/06/02 20:49:35;;;;;;;2.60;1.80;;;;;;;6.31;65.14;100835.31;10265019;28;20047;-84
2023/06/02 20:54:37;;;;;;;3.08;1.83;;;;;;;6.28;65.59;100836.63;10254666;28;20401;-85
2023/06/02 20:59:40;;;;;;;3.08;1.65;;;;;;;6.22;66.10;100832.16;10264445;28;20034;-84
2023/06/02 21:04:44;;;;;;;2.38;1.90;;;;;;;6.19;66.01;100838.09;10249836;28;20599;-82
2023/06/02 21:09:47;;;;;;;2.65;1.88;;;;;;;6.15;66.50;100844.31;10232085;29;20054;-82
2023/06/02 21:14:53;;;;;;;3.35;1.55;;;;;;;6.08;66.71;100836.31;10266912;29;20043;-84
2023/06/02 21:19:55;;;;;;;2.67;1.60;;;;;;;6.05;67.52;100828.59;10271469;28;20050;-83
2023/06/02 21:24:58;;;;;;;1.90;1.40;;;;;;;5.99;67.91;100824.97;10256208;28;20043;-83
2023/06/02 21:30:00;;;;;;;2.45;1.50;;;;;;;6.02;68.30;100829.94;10243401;28;20053;-83
2023/06/02 21:35:02;;;;;;;2.47;1.50;;;;;;;5.99;68.42;100824.97;10259242;29;20039;-83
2023/06/02 21:40:05;;;;;;;2.05;1.60;;;;;;;5.99;67.97;100824.16;10239140;28;20035;-82
2023/06/02 21:45:27;;;;;;;1.98;1.25;;;;;;;5.93;68.48;100823.25;10257798;28;20039;-83
2023/06/02 21:50:48;;;;;;;2.17;1.30;;;;;;;5.93;68.82;100814.25;10277526;28;20062;-85
2023/06/02 21:55:50;;;;;;;2.85;1.30;;;;;;;5.91;68.80;100813.69;10255150;29;20059;-82
2023/06/02 22:00:52;;;;;;;1.67;1.38;;;;;;;5.89;68.72;100818.47;10263236;29;20043;-82
2023/06/02 22:05:54;;;;;;;3.60;1.40;;;;;;;5.82;68.72;100820.53;10261375;29;20043;-83
2023/06/02 22:10:59;;;;;;;4.22;1.70;;;;;;;5.79;68.84;100812.88;10247855;29;20051;-84
2023/06/02 22:16:02;;;;;;;3.45;1.50;;;;;;;5.78;68.98;100816.66;10258751;29;20049;-83
2023/06/02 22:21:04;;;;;;;2.20;1.40;;;;;;;5.73;68.94;100814.69;10245988;29;20428;-83
2023/06/02 22:26:06;;;;;;;2.88;1.23;;;;;;;5.70;68.82;100821.44;10236878;29;20624;-83
2023/06/02 22:31:10;;;;;;;3.72;1.33;;;;;;;5.69;68.88;100814.34;10235398;29;20031;-83
2023/06/02 22:36:12;;;;;;;3.80;1.45;;;;;;;5.63;69.53;100815.31;10266244;29;20425;-83
2023/06/02 22:41:14;;;;;;;2.50;1.42;;;;;;;5.58;69.67;100807.06;10262261;29;20035;-83
2023/06/02 22:46:16;;;;;;;3.53;1.50;;;;;;;5.55;70.48;100798.53;10256151;28;20039;-82
2023/06/02 22:51:18;;;;;;;2.95;1.63;;;;;;;5.49;70.95;100805.78;10269858;29;20066;-83
2023/06/02 22:56:21;;;;;;;3.20;1.73;;;;;;;5.43;71.90;100810.31;10249768;29;20047;-83
2023/06/02 23:01:24;;;;;;;2.38;1.77;;;;;;;5.38;73.08;100807.50;10240192;29;20039;-82
2023/06/02 23:06:27;;;;;;;3.58;1.88;;;;;;;5.34;73.41;100811.75;10234407;28;20128;-84
2023/06/02 23:11:29;;;;;;;3.22;2.20;;;;;;;5.30;74.88;100805.16;10250174;29;20050;-83
2023/06/02 23:16:31;;;;;;;7.15;2.70;;;;;;;5.24;76.43;100799.88;10253998;29;20039;-83
2023/06/02 23:21:33;;;;;;;3.97;2.33;;;;;;;5.19;76.60;100802.47;10229884;29;20051;-82
2023/06/02 23:26:35;;;;;;;3.30;2.30;;;;;;;5.18;76.93;100804.38;10201166;29;20040;-83